CST,Max TemperatureF,Mean TemperatureF,Min TemperatureF,Max Dew PointF,MeanDew PointF,Min DewpointF,Max Humidity, Mean Humidity, Min Humidity, Max Sea Level PressureIn, Mean Sea Level PressureIn, Min Sea Level PressureIn, Max VisibilityMiles, Mean VisibilityMiles, Min VisibilityMiles, Max Wind SpeedMPH, Mean Wind SpeedMPH, Max Gust SpeedMPH,PrecipitationIn, CloudCover, Events, WindDirDegrees
2013-11-1,42,39,36,42,39,36,100,96,83,29.72,29.47,29.21,10,8,2,14,8,17,0.05,8,Rain-Snow,329
2013-11-2,39,35,31,36,34,30,100,96,72,30.11,29.93,29.72,10,9,0,8,1,,0.03,8,Fog-Rain-Snow,10
2013-11-3,42,34,27,35,31,28,100,87,61,30.22,30.16,30.11,10,9,1,12,4,24,0.00,6,,157
2013-11-4,46,42,39,43,36,33,100,81,62,30.13,30.01,29.91,10,9,3,17,11,26,0.05,7,Rain,185
2013-11-5,45,36,28,38,31,27,100,80,50,30.21,30.11,29.93,10,8,0,13,5,21,0.10,4,Fog-Rain-Snow,251
2013-11-6,33,30,27,33,29,22,100,90,75,30.03,29.91,29.82,10,7,1,15,8,22,0.20,8,Snow,327
2013-11-7,31,28,26,25,23,19,83,77,64,30.11,30.07,30.03,10,10,5,10,8,16,0.00,8,Snow,276
2013-11-8,34,26,19,33,25,18,100,86,66,30.16,30.02,29.71,10,7,1,13,6,21,0.01,6,Snow,192
2013-11-9,36,34,32,36,32,28,100,92,76,29.91,29.70,29.57,10,6,1,20,10,30,0.26,8,Rain-Snow,255
2013-11-10,35,34,32,32,27,24,100,77,63,30.20,30.09,29.92,10,8,1,18,11,29,0.00,6,Snow,270
2013-11-11,32,26,18,32,16,9,100,74,56,30.49,30.24,29.98,10,8,2,24,12,29,0.00,8,Snow,326
2013-11-12,25,19,13,14,7,1,82,60,35,30.57,30.49,30.35,10,10,5,14,9,18,0.00,3,Snow,279
2013-11-13,44,30,16,27,19,6,74,62,46,30.34,30.00,29.80,10,10,10,20,10,30,0.00,0,,230
2013-11-14,37,34,30,31,27,25,96,76,66,29.81,29.77,29.74,10,10,10,10,6,,0.00,4,,226
2013-11-15,48,37,26,36,31,27,100,84,57,29.83,29.79,29.75,10,7,0,13,3,,0.00,2,Fog,202
2013-11-16,51,43,35,51,38,30,100,90,76,29.76,29.54,29.30,10,7,1,10,6,21,0.68,7,Rain,165
2013-11-17,50,41,32,50,39,29,100,93,79,29.45,29.31,29.18,10,8,4,24,8,38,0.03,5,Rain-Snow,251
2013-11-18,32,28,25,28,19,15,87,70,63,30.16,29.85,29.46,10,9,2,25,18,40,0.00,8,Snow,305
2013-11-19,35,24,12,22,16,11,98,67,44,30.26,30.18,30.09,10,10,7,13,6,21,0.00,3,,165
2013-11-20,36,33,30,32,26,21,100,76,56,30.09,30.06,30.04,10,7,1,13,8,21,0.00,8,Snow,170
2013-11-21,33,29,24,33,31,22,100,98,87,30.32,30.14,30.04,10,3,0,15,4,22,0.12,8,Fog-Snow,300
2013-11-22,28,21,13,23,15,5,94,73,47,30.41,30.33,30.28,10,8,1,17,10,23,0.00,6,Snow,309
2013-11-23,12,8,5,8,1,-4,80,70,52,30.57,30.50,30.34,10,7,1,20,11,33,0.00,7,Snow,320
2013-11-24,21,10,-1,9,1,-6,84,64,48,30.52,30.28,29.89,10,10,4,18,8,29,0.00,4,Snow,229
2013-11-25,32,27,22,24,20,10,84,70,59,29.88,29.80,29.75,10,10,4,21,14,30,0.00,8,Snow,250
2013-11-26,28,18,7,24,8,-1,85,73,53,30.13,30.01,29.86,10,7,1,17,9,26,0.00,7,Snow,310
2013-11-27,22,16,9,14,9,4,86,73,45,30.19,30.13,30.09,10,7,2,12,5,17,0.00,6,Snow,342
2013-11-28,21,10,0,14,10,-4,89,81,65,30.39,30.18,30.06,10,6,0,7,2,,0.00,6,Snow,311
2013-11-29,23,12,1,18,14,-3,98,82,66,30.49,30.38,30.20,10,10,7,12,2,17,0.00,7,,184
2013-11-30,32,28,23,23,20,16,80,72,65,30.18,30.04,29.96,10,10,10,9,4,17,0.02,6,,253